Malilla, Sweden

1:28 PM CEST on October 01, 2014 (GMT +0200)
IKALMARL3 | Change Station
CLOSE
Current Station
Personal Weather Station
Location: Vimmerby, KALMAR
Elevation: 423 ft
Nearby Weather Stations

Elev 423 ft 57.58 °N, 16.10 °E | Updated 27 minutes ago

Mostly Cloudy
Mostly Cloudy
54.9 °F
Feels Like 54.9 °F
N
0.0
Wind Variable Wind from ENE
Gusts 12.0 mph

Today
High -- | Low -- °F
--% Chance of Precip.
Yesterday
High -- | Low -- °F
Precip. -- in
7:00 AM 6:31 PM
Waxing Crescent, 46% visible
Pressure 30.39 in
Visibility 6.2 miles
Clouds Few 2300 ft
Mostly Cloudy 9100 ft
Dew Point 44 °F
Humidity 67%
Rainfall 0.00 in
Snow Depth Not available.
UV 2 out of 12
Pollen Not available.
Air Quality Not available.
Flu Activity Not available.
METAR ESMX 011050Z AUTO 13008KT 080V180 9999 FEW023/// BKN091/// 13/07 Q1029

More Conditions Fewer Conditions

Pressure 30.39 in
Visibility 6.2 miles
Clouds Few 2300 ft
Mostly Cloudy 9100 ft
Dew Point 44 °F
Humidity 67%
Rainfall 0.00 in
Snow Depth Not available.
UV 2 out of 12
Pollen Not available.
Air Quality Not available.
Flu Activity Not available.
METAR ESMX 011050Z AUTO 13008KT 080V180 9999 FEW023/// BKN091/// 13/07 Q1029

More Conditions Fewer Conditions

10-Day Weather Forecast

Almanac

Astronomy

Oct. 01, 2014 Rise Set
Actual Time 7:00 AM CEST 6:31 PM CEST
Civil Twilight 6:21 AM CEST 7:09 PM CEST
Nautical Twilight 5:36 AM CEST 7:54 PM CEST
Astronomical Twilight 4:49 AM CEST 8:41 PM CEST
Moon 2:41 PM CEST 10:51 PM CEST
Length of Visible Light 12h 48m
Length of Day
11h 31m
Tomorrow will be 4m 52s shorter.
Waxing Crescent, 46% of the Moon is Illuminated
Today
Waxing Crescent
Oct 1
First Quarter
Oct 8
Full
Oct 15
Last Quarter
Oct 23
New

Yesterday's Extremes

Country Highs Country Lows

Community

WunderPhotos

Upload Photos

1,757,913 photos uploaded!

Nearby

Snow Depth

Not available.

Earthquake Activity

City Distance Mag. Time & Date
No recent earthquake activity has been reported nearby.
Minimum magnitude displayed is 2.5.

Coastal Water Temperatures

Place Temperature
No Stations Reporting

Nearby Weather Stations